sensor_id;sensor_type;location;lat;lon;timestamp;temperature;humidity
18717;DHT22;9487;50.892;6.906;2023-01-16T00:01:01;6.40;1.00
18717;DHT22;9487;50.892;6.906;2023-01-16T00:03:28;6.30;1.00
18717;DHT22;9487;50.892;6.906;2023-01-16T00:05:55;6.30;1.00
18717;DHT22;9487;50.892;6.906;2023-01-16T00:08:21;6.30;99.90
18717;DHT22;9487;50.892;6.906;2023-01-16T00:10:48;6.20;99.90
18717;DHT22;9487;50.892;6.906;2023-01-16T00:13:15;6.30;99.90
18717;DHT22;9487;50.892;6.906;2023-01-16T00:15:46;6.30;99.90
18717;DHT22;9487;50.892;6.906;2023-01-16T00:18:13;6.30;99.90
18717;DHT22;9487;50.892;6.906;2023-01-16T00:20:40;6.20;99.90
18717;DHT22;9487;50.892;6.906;2023-01-16T00:23:06;6.20;99.90
18717;DHT22;9487;50.892;6.906;2023-01-16T00:25:34;6.30;1.00
18717;DHT22;9487;50.892;6.906;2023-01-16T00:28:04;6.30;99.90
18717;DHT22;9487;50.892;6.906;2023-01-16T00:30:31;6.30;99.90
18717;DHT22;9487;50.892;6.906;2023-01-16T00:32:59;6.30;99.90
18717;DHT22;9487;50.892;6.906;2023-01-16T00:35:27;6.30;99.90
18717;DHT22;9487;50.892;6.906;2023-01-16T00:37:53;6.40;99.90
18717;DHT22;9487;50.892;6.906;2023-01-16T00:40:20;6.40;99.90
18717;DHT22;9487;50.892;6.906;2023-01-16T00:42:47;6.40;99.90
18717;DHT22;9487;50.892;6.906;2023-01-16T00:45:14;6.40;79.30
18717;DHT22;9487;50.892;6.906;2023-01-16T00:47:41;6.40;25.40
18717;DHT22;9487;50.892;6.906;2023-01-16T00:50:09;6.40;41.00
18717;DHT22;9487;50.892;6.906;2023-01-16T00:52:36;6.40;99.90
18717;DHT22;9487;50.892;6.906;2023-01-16T00:55:04;6.40;99.90
18717;DHT22;9487;50.892;6.906;2023-01-16T00:57:31;6.40;99.90
18717;DHT22;9487;50.892;6.906;2023-01-16T00:59:58;6.50;99.90
18717;DHT22;9487;50.892;6.906;2023-01-16T01:02:25;6.50;74.30
18717;DHT22;9487;50.892;6.906;2023-01-16T01:04:51;6.50;99.90
18717;DHT22;9487;50.892;6.906;2023-01-16T01:07:20;6.50;99.90
18717;DHT22;9487;50.892;6.906;2023-01-16T01:09:46;6.50;73.90
18717;DHT22;9487;50.892;6.906;2023-01-16T01:12:13;6.40;25.10
18717;DHT22;9487;50.892;6.906;2023-01-16T01:14:40;6.30;99.90
18717;DHT22;9487;50.892;6.906;2023-01-16T01:17:07;6.30;99.90
18717;DHT22;9487;50.892;6.906;2023-01-16T01:19:35;6.30;99.90
18717;DHT22;9487;50.892;6.906;2023-01-16T01:22:02;6.30;99.90
18717;DHT22;9487;50.892;6.906;2023-01-16T01:24:30;6.30;99.90
18717;DHT22;9487;50.892;6.906;2023-01-16T01:26:57;6.20;99.90
18717;DHT22;9487;50.892;6.906;2023-01-16T01:29:23;6.20;99.90
18717;DHT22;9487;50.892;6.906;2023-01-16T01:31:50;6.20;86.30
18717;DHT22;9487;50.892;6.906;2023-01-16T01:34:17;6.20;99.90
18717;DHT22;9487;50.892;6.906;2023-01-16T01:36:44;6.10;99.90
18717;DHT22;9487;50.892;6.906;2023-01-16T01:39:11;6.00;1.00
18717;DHT22;9487;50.892;6.906;2023-01-16T01:41:39;5.90;1.00
18717;DHT22;9487;50.892;6.906;2023-01-16T01:44:44;5.90;99.90
18717;DHT22;9487;50.892;6.906;2023-01-16T01:47:13;6.00;1.00
18717;DHT22;9487;50.892;6.906;2023-01-16T01:49:41;6.00;1.00
18717;DHT22;9487;50.892;6.906;2023-01-16T01:52:08;6.00;99.90
18717;DHT22;9487;50.892;6.906;2023-01-16T01:54:38;6.10;99.90
18717;DHT22;9487;50.892;6.906;2023-01-16T01:57:10;6.10;91.10
18717;DHT22;9487;50.892;6.906;2023-01-16T01:59:41;6.10;15.50
18717;DHT22;9487;50.892;6.906;2023-01-16T02:02:14;6.10;1.00
18717;DHT22;9487;50.892;6.906;2023-01-16T02:04:46;6.10;1.00
18717;DHT22;9487;50.892;6.906;2023-01-16T02:07:16;6.10;1.00
18717;DHT22;9487;50.892;6.906;2023-01-16T02:09:44;6.10;1.00
18717;DHT22;9487;50.892;6.906;2023-01-16T02:12:14;6.00;1.00
18717;DHT22;9487;50.892;6.906;2023-01-16T02:14:43;6.00;1.00
18717;DHT22;9487;50.892;6.906;2023-01-16T02:17:13;6.00;1.00
18717;DHT22;9487;50.892;6.906;2023-01-16T02:20:13;6.00;1.00
18717;DHT22;9487;50.892;6.906;2023-01-16T02:22:56;6.00;1.00
18717;DHT22;9487;50.892;6.906;2023-01-16T02:25:44;6.00;1.00
18717;DHT22;9487;50.892;6.906;2023-01-16T02:31:22;6.00;1.00
18717;DHT22;9487;50.892;6.906;2023-01-16T02:34:01;5.90;1.00
18717;DHT22;9487;50.892;6.906;2023-01-16T02:36:40;5.90;1.00
18717;DHT22;9487;50.892;6.906;2023-01-16T02:39:17;5.90;1.00
18717;DHT22;9487;50.892;6.906;2023-01-16T02:41:51;5.90;1.00
18717;DHT22;9487;50.892;6.906;2023-01-16T02:44:29;5.90;6.30
18717;DHT22;9487;50.892;6.906;2023-01-16T02:47:09;5.90;1.00
18717;DHT22;9487;50.892;6.906;2023-01-16T02:49:41;6.00;1.00
18717;DHT22;9487;50.892;6.906;2023-01-16T02:52:13;5.90;99.90
18717;DHT22;9487;50.892;6.906;2023-01-16T02:54:47;6.00;99.90
18717;DHT22;9487;50.892;6.906;2023-01-16T02:57:19;6.00;99.90
18717;DHT22;9487;50.892;6.906;2023-01-16T02:59:48;5.90;99.90
18717;DHT22;9487;50.892;6.906;2023-01-16T03:02:17;5.90;99.90
18717;DHT22;9487;50.892;6.906;2023-01-16T03:04:46;5.90;99.90
18717;DHT22;9487;50.892;6.906;2023-01-16T03:07:36;5.90;99.90
18717;DHT22;9487;50.892;6.906;2023-01-16T03:10:18;5.80;1.00
18717;DHT22;9487;50.892;6.906;2023-01-16T03:12:55;5.80;1.00
18717;DHT22;9487;50.892;6.906;2023-01-16T03:15:27;5.80;99.90
18717;DHT22;9487;50.892;6.906;2023-01-16T03:18:08;5.80;99.90
18717;DHT22;9487;50.892;6.906;2023-01-16T03:20:48;5.80;99.90
18717;DHT22;9487;50.892;6.906;2023-01-16T03:23:23;5.70;99.90
18717;DHT22;9487;50.892;6.906;2023-01-16T03:25:56;5.80;1.00
18717;DHT22;9487;50.892;6.906;2023-01-16T03:28:32;5.70;1.00
18717;DHT22;9487;50.892;6.906;2023-01-16T03:31:06;5.70;1.00
18717;DHT22;9487;50.892;6.906;2023-01-16T03:33:42;5.60;99.90
18717;DHT22;9487;50.892;6.906;2023-01-16T03:36:14;5.70;1.00
18717;DHT22;9487;50.892;6.906;2023-01-16T03:38:45;5.70;99.90
18717;DHT22;9487;50.892;6.906;2023-01-16T03:41:15;5.60;99.90
18717;DHT22;9487;50.892;6.906;2023-01-16T03:43:45;5.60;1.00
18717;DHT22;9487;50.892;6.906;2023-01-16T03:46:16;5.70;99.90
18717;DHT22;9487;50.892;6.906;2023-01-16T03:48:49;5.60;1.00
18717;DHT22;9487;50.892;6.906;2023-01-16T03:51:21;5.60;99.90
18717;DHT22;9487;50.892;6.906;2023-01-16T03:53:56;5.70;1.00
18717;DHT22;9487;50.892;6.906;2023-01-16T03:56:29;5.80;99.90
18717;DHT22;9487;50.892;6.906;2023-01-16T03:58:58;5.80;99.90
18717;DHT22;9487;50.892;6.906;2023-01-16T04:01:30;5.80;99.90
18717;DHT22;9487;50.892;6.906;2023-01-16T04:04:06;5.80;99.90
18717;DHT22;9487;50.892;6.906;2023-01-16T04:06:37;5.70;1.00
18717;DHT22;9487;50.892;6.906;2023-01-16T04:09:10;5.80;1.00
18717;DHT22;9487;50.892;6.906;2023-01-16T04:11:39;5.80;1.00
18717;DHT22;9487;50.892;6.906;2023-01-16T04:14:08;5.90;99.90
18717;DHT22;9487;50.892;6.906;2023-01-16T04:16:36;5.90;99.90
18717;DHT22;9487;50.892;6.906;2023-01-16T04:19:07;5.90;99.90
18717;DHT22;9487;50.892;6.906;2023-01-16T04:21:34;5.80;99.90
18717;DHT22;9487;50.892;6.906;2023-01-16T04:24:01;5.80;99.90
18717;DHT22;9487;50.892;6.906;2023-01-16T04:26:29;5.70;99.90
18717;DHT22;9487;50.892;6.906;2023-01-16T04:28:55;5.70;1.00
18717;DHT22;9487;50.892;6.906;2023-01-16T04:31:23;5.60;1.00
18717;DHT22;9487;50.892;6.906;2023-01-16T04:33:50;5.60;99.90
18717;DHT22;9487;50.892;6.906;2023-01-16T04:36:18;5.60;1.00
18717;DHT22;9487;50.892;6.906;2023-01-16T04:38:45;5.60;99.90
18717;DHT22;9487;50.892;6.906;2023-01-16T04:41:12;5.60;1.00
18717;DHT22;9487;50.892;6.906;2023-01-16T04:43:59;5.70;99.90
18717;DHT22;9487;50.892;6.906;2023-01-16T04:46:25;5.80;42.00
18717;DHT22;9487;50.892;6.906;2023-01-16T04:48:52;5.80;1.00
18717;DHT22;9487;50.892;6.906;2023-01-16T04:51:20;5.80;1.00
18717;DHT22;9487;50.892;6.906;2023-01-16T04:53:47;5.80;1.00
18717;DHT22;9487;50.892;6.906;2023-01-16T04:56:14;5.80;99.90
18717;DHT22;9487;50.892;6.906;2023-01-16T04:58:41;5.80;99.90
18717;DHT22;9487;50.892;6.906;2023-01-16T05:01:08;5.80;1.00
18717;DHT22;9487;50.892;6.906;2023-01-16T05:03:34;5.70;1.00
18717;DHT22;9487;50.892;6.906;2023-01-16T05:06:01;5.80;1.00
18717;DHT22;9487;50.892;6.906;2023-01-16T05:08:29;5.90;1.00
18717;DHT22;9487;50.892;6.906;2023-01-16T05:10:56;5.90;99.90
18717;DHT22;9487;50.892;6.906;2023-01-16T05:13:26;5.90;99.90
18717;DHT22;9487;50.892;6.906;2023-01-16T05:15:53;5.90;27.10
18717;DHT22;9487;50.892;6.906;2023-01-16T05:18:20;5.90;63.10
18717;DHT22;9487;50.892;6.906;2023-01-16T05:20:47;5.90;9.40
18717;DHT22;9487;50.892;6.906;2023-01-16T05:23:13;5.90;94.00
18717;DHT22;9487;50.892;6.906;2023-01-16T05:25:42;5.90;41.00
18717;DHT22;9487;50.892;6.906;2023-01-16T05:28:09;5.90;99.90
18717;DHT22;9487;50.892;6.906;2023-01-16T05:30:36;6.00;1.00
18717;DHT22;9487;50.892;6.906;2023-01-16T05:33:03;6.10;1.00
18717;DHT22;9487;50.892;6.906;2023-01-16T05:35:31;6.10;1.00
18717;DHT22;9487;50.892;6.906;2023-01-16T05:37:58;6.00;1.00
18717;DHT22;9487;50.892;6.906;2023-01-16T05:40:25;6.00;1.00
18717;DHT22;9487;50.892;6.906;2023-01-16T05:42:53;6.10;1.00
18717;DHT22;9487;50.892;6.906;2023-01-16T05:45:20;6.00;1.00
18717;DHT22;9487;50.892;6.906;2023-01-16T05:47:47;5.90;1.00
18717;DHT22;9487;50.892;6.906;2023-01-16T05:50:14;6.00;99.90
18717;DHT22;9487;50.892;6.906;2023-01-16T05:52:41;6.00;48.60
18717;DHT22;9487;50.892;6.906;2023-01-16T05:55:08;6.00;1.00
18717;DHT22;9487;50.892;6.906;2023-01-16T05:57:35;6.00;1.00
18717;DHT22;9487;50.892;6.906;2023-01-16T06:00:04;5.90;8.50
18717;DHT22;9487;50.892;6.906;2023-01-16T06:02:32;5.90;99.90
18717;DHT22;9487;50.892;6.906;2023-01-16T06:04:58;5.90;99.90
18717;DHT22;9487;50.892;6.906;2023-01-16T06:07:25;5.90;99.90
18717;DHT22;9487;50.892;6.906;2023-01-16T06:09:52;5.90;99.90
18717;DHT22;9487;50.892;6.906;2023-01-16T06:12:19;5.90;99.90
18717;DHT22;9487;50.892;6.906;2023-01-16T06:14:46;5.90;99.90
18717;DHT22;9487;50.892;6.906;2023-01-16T06:17:14;5.90;99.90
18717;DHT22;9487;50.892;6.906;2023-01-16T06:19:41;6.00;99.90
18717;DHT22;9487;50.892;6.906;2023-01-16T06:22:09;6.00;99.90
18717;DHT22;9487;50.892;6.906;2023-01-16T06:24:36;6.00;99.90
18717;DHT22;9487;50.892;6.906;2023-01-16T06:27:02;6.10;99.90
18717;DHT22;9487;50.892;6.906;2023-01-16T06:29:29;6.10;1.00
18717;DHT22;9487;50.892;6.906;2023-01-16T06:31:56;6.10;1.00
18717;DHT22;9487;50.892;6.906;2023-01-16T06:34:24;6.10;1.00
18717;DHT22;9487;50.892;6.906;2023-01-16T06:36:51;6.10;1.00
18717;DHT22;9487;50.892;6.906;2023-01-16T06:39:18;6.10;1.00
18717;DHT22;9487;50.892;6.906;2023-01-16T06:41:45;6.20;1.00
18717;DHT22;9487;50.892;6.906;2023-01-16T06:44:11;6.10;1.00
18717;DHT22;9487;50.892;6.906;2023-01-16T06:46:38;6.10;1.00
18717;DHT22;9487;50.892;6.906;2023-01-16T06:49:05;6.10;1.00
18717;DHT22;9487;50.892;6.906;2023-01-16T06:51:33;6.10;1.00
18717;DHT22;9487;50.892;6.906;2023-01-16T06:54:00;6.00;1.00
18717;DHT22;9487;50.892;6.906;2023-01-16T06:56:28;6.10;1.00
18717;DHT22;9487;50.892;6.906;2023-01-16T06:58:55;6.10;1.00
18717;DHT22;9487;50.892;6.906;2023-01-16T07:01:22;6.10;1.00
18717;DHT22;9487;50.892;6.906;2023-01-16T07:03:48;6.20;1.00
18717;DHT22;9487;50.892;6.906;2023-01-16T07:06:15;6.20;1.00
18717;DHT22;9487;50.892;6.906;2023-01-16T07:08:43;6.30;1.00
18717;DHT22;9487;50.892;6.906;2023-01-16T07:11:10;6.30;1.00
18717;DHT22;9487;50.892;6.906;2023-01-16T07:13:37;6.30;1.00
18717;DHT22;9487;50.892;6.906;2023-01-16T07:16:04;6.30;99.90
18717;DHT22;9487;50.892;6.906;2023-01-16T07:18:48;6.30;99.90
18717;DHT22;9487;50.892;6.906;2023-01-16T07:21:32;6.20;99.90
18717;DHT22;9487;50.892;6.906;2023-01-16T07:24:20;6.20;99.90
18717;DHT22;9487;50.892;6.906;2023-01-16T07:26:52;6.20;99.90
18717;DHT22;9487;50.892;6.906;2023-01-16T07:29:22;6.10;99.90
18717;DHT22;9487;50.892;6.906;2023-01-16T07:31:49;6.10;99.90
18717;DHT22;9487;50.892;6.906;2023-01-16T07:34:16;6.10;99.90
18717;DHT22;9487;50.892;6.906;2023-01-16T07:36:43;6.20;99.90
18717;DHT22;9487;50.892;6.906;2023-01-16T07:39:10;6.20;99.90
18717;DHT22;9487;50.892;6.906;2023-01-16T07:41:38;6.20;99.90
18717;DHT22;9487;50.892;6.906;2023-01-16T07:44:04;6.30;99.90
18717;DHT22;9487;50.892;6.906;2023-01-16T07:46:32;6.30;99.90
18717;DHT22;9487;50.892;6.906;2023-01-16T07:48:59;6.20;99.90
18717;DHT22;9487;50.892;6.906;2023-01-16T07:51:25;6.20;1.00
18717;DHT22;9487;50.892;6.906;2023-01-16T07:53:52;6.20;1.00
18717;DHT22;9487;50.892;6.906;2023-01-16T07:56:19;6.10;99.90
18717;DHT22;9487;50.892;6.906;2023-01-16T07:58:47;6.00;31.50
18717;DHT22;9487;50.892;6.906;2023-01-16T08:01:15;5.90;1.00
18717;DHT22;9487;50.892;6.906;2023-01-16T08:03:41;6.00;1.00
18717;DHT22;9487;50.892;6.906;2023-01-16T08:06:08;6.00;1.00
18717;DHT22;9487;50.892;6.906;2023-01-16T08:08:35;6.00;1.00
18717;DHT22;9487;50.892;6.906;2023-01-16T08:11:02;6.00;99.90
18717;DHT22;9487;50.892;6.906;2023-01-16T08:13:51;6.00;99.90
18717;DHT22;9487;50.892;6.906;2023-01-16T08:16:18;6.00;99.90
18717;DHT22;9487;50.892;6.906;2023-01-16T08:18:45;6.00;99.90
18717;DHT22;9487;50.892;6.906;2023-01-16T08:21:14;5.90;99.90
18717;DHT22;9487;50.892;6.906;2023-01-16T08:23:41;5.90;1.00
18717;DHT22;9487;50.892;6.906;2023-01-16T08:26:08;5.90;1.00
18717;DHT22;9487;50.892;6.906;2023-01-16T08:28:35;6.80;99.90
18717;DHT22;9487;50.892;6.906;2023-01-16T08:31:08;6.90;1.00
18717;DHT22;9487;50.892;6.906;2023-01-16T08:33:37;6.50;99.90
18717;DHT22;9487;50.892;6.906;2023-01-16T08:36:05;6.20;1.00
18717;DHT22;9487;50.892;6.906;2023-01-16T08:38:33;6.10;99.90
18717;DHT22;9487;50.892;6.906;2023-01-16T08:41:00;6.00;1.00
18717;DHT22;9487;50.892;6.906;2023-01-16T08:43:27;6.00;1.00
18717;DHT22;9487;50.892;6.906;2023-01-16T08:46:18;6.00;1.00
18717;DHT22;9487;50.892;6.906;2023-01-16T08:49:03;5.90;1.00
18717;DHT22;9487;50.892;6.906;2023-01-16T08:51:49;5.90;99.90
18717;DHT22;9487;50.892;6.906;2023-01-16T08:54:16;5.90;99.90
18717;DHT22;9487;50.892;6.906;2023-01-16T08:56:43;5.90;1.00
18717;DHT22;9487;50.892;6.906;2023-01-16T08:59:10;5.90;1.00
18717;DHT22;9487;50.892;6.906;2023-01-16T09:01:38;5.90;99.90
18717;DHT22;9487;50.892;6.906;2023-01-16T09:04:06;5.90;19.90
18717;DHT22;9487;50.892;6.906;2023-01-16T09:06:33;5.80;1.00
18717;DHT22;9487;50.892;6.906;2023-01-16T09:09:03;5.90;1.00
18717;DHT22;9487;50.892;6.906;2023-01-16T09:11:30;5.90;1.00
18717;DHT22;9487;50.892;6.906;2023-01-16T09:14:15;5.90;63.60
18717;DHT22;9487;50.892;6.906;2023-01-16T09:16:43;5.90;1.00
18717;DHT22;9487;50.892;6.906;2023-01-16T09:19:10;5.80;1.00
18717;DHT22;9487;50.892;6.906;2023-01-16T09:21:37;5.80;1.00
18717;DHT22;9487;50.892;6.906;2023-01-16T09:24:04;5.80;1.00
18717;DHT22;9487;50.892;6.906;2023-01-16T09:26:30;5.80;1.00
18717;DHT22;9487;50.892;6.906;2023-01-16T09:28:57;5.80;1.00
18717;DHT22;9487;50.892;6.906;2023-01-16T09:31:24;5.90;1.00
18717;DHT22;9487;50.892;6.906;2023-01-16T09:33:52;5.80;1.00
18717;DHT22;9487;50.892;6.906;2023-01-16T09:36:20;5.80;1.00
18717;DHT22;9487;50.892;6.906;2023-01-16T09:38:47;5.80;1.00
18717;DHT22;9487;50.892;6.906;2023-01-16T09:41:16;5.80;1.00
18717;DHT22;9487;50.892;6.906;2023-01-16T09:44:06;5.80;1.00
18717;DHT22;9487;50.892;6.906;2023-01-16T09:46:36;5.80;1.00
18717;DHT22;9487;50.892;6.906;2023-01-16T09:49:14;5.70;1.00
18717;DHT22;9487;50.892;6.906;2023-01-16T09:51:47;5.80;1.00
18717;DHT22;9487;50.892;6.906;2023-01-16T09:54:39;5.80;1.00
18717;DHT22;9487;50.892;6.906;2023-01-16T09:57:27;5.80;1.00
18717;DHT22;9487;50.892;6.906;2023-01-16T10:00:16;5.80;99.90
18717;DHT22;9487;50.892;6.906;2023-01-16T10:02:43;5.80;99.90
18717;DHT22;9487;50.892;6.906;2023-01-16T10:05:12;5.80;99.90
18717;DHT22;9487;50.892;6.906;2023-01-16T10:07:55;5.90;52.70
18717;DHT22;9487;50.892;6.906;2023-01-16T10:10:36;5.90;52.50
18717;DHT22;9487;50.892;6.906;2023-01-16T10:13:13;5.90;22.50
18717;DHT22;9487;50.892;6.906;2023-01-16T10:15:45;6.00;1.00
18717;DHT22;9487;50.892;6.906;2023-01-16T10:18:25;5.90;53.60
18717;DHT22;9487;50.892;6.906;2023-01-16T10:21:34;6.00;5.60
18717;DHT22;9487;50.892;6.906;2023-01-16T10:24:12;6.00;1.00
18717;DHT22;9487;50.892;6.906;2023-01-16T10:26:52;5.90;1.00
18717;DHT22;9487;50.892;6.906;2023-01-16T10:29:24;5.90;1.00
18717;DHT22;9487;50.892;6.906;2023-01-16T10:31:58;5.90;1.00
18717;DHT22;9487;50.892;6.906;2023-01-16T10:34:29;6.00;1.00
18717;DHT22;9487;50.892;6.906;2023-01-16T10:37:00;6.00;1.00
18717;DHT22;9487;50.892;6.906;2023-01-16T10:39:32;6.00;1.00
18717;DHT22;9487;50.892;6.906;2023-01-16T10:42:08;6.00;1.00
18717;DHT22;9487;50.892;6.906;2023-01-16T10:44:58;5.90;1.00
18717;DHT22;9487;50.892;6.906;2023-01-16T10:47:44;5.90;1.00
18717;DHT22;9487;50.892;6.906;2023-01-16T10:50:29;6.00;1.00
18717;DHT22;9487;50.892;6.906;2023-01-16T10:52:58;6.00;1.00
18717;DHT22;9487;50.892;6.906;2023-01-16T10:55:25;6.00;1.00
18717;DHT22;9487;50.892;6.906;2023-01-16T10:57:54;6.00;1.00
18717;DHT22;9487;50.892;6.906;2023-01-16T11:00:23;6.00;99.90
18717;DHT22;9487;50.892;6.906;2023-01-16T11:02:58;5.90;99.90
18717;DHT22;9487;50.892;6.906;2023-01-16T11:05:27;6.00;99.90
18717;DHT22;9487;50.892;6.906;2023-01-16T11:07:54;6.00;99.90
18717;DHT22;9487;50.892;6.906;2023-01-16T11:10:23;6.00;99.90
18717;DHT22;9487;50.892;6.906;2023-01-16T11:12:51;6.00;99.90
18717;DHT22;9487;50.892;6.906;2023-01-16T11:15:36;6.10;99.90
18717;DHT22;9487;50.892;6.906;2023-01-16T11:18:22;6.10;99.90
18717;DHT22;9487;50.892;6.906;2023-01-16T11:20:55;6.10;99.90
18717;DHT22;9487;50.892;6.906;2023-01-16T11:23:24;6.20;99.90
18717;DHT22;9487;50.892;6.906;2023-01-16T11:25:54;6.20;99.90
18717;DHT22;9487;50.892;6.906;2023-01-16T11:28:25;6.20;99.90
18717;DHT22;9487;50.892;6.906;2023-01-16T11:30:55;6.30;1.00
18717;DHT22;9487;50.892;6.906;2023-01-16T11:33:25;6.20;99.90
18717;DHT22;9487;50.892;6.906;2023-01-16T11:35:55;6.10;1.00
18717;DHT22;9487;50.892;6.906;2023-01-16T11:38:23;6.10;1.00
18717;DHT22;9487;50.892;6.906;2023-01-16T11:40:54;6.10;1.00
18717;DHT22;9487;50.892;6.906;2023-01-16T11:43:24;6.20;1.00
18717;DHT22;9487;50.892;6.906;2023-01-16T11:46:31;6.20;1.00
18717;DHT22;9487;50.892;6.906;2023-01-16T11:49:01;6.20;1.00
18717;DHT22;9487;50.892;6.906;2023-01-16T11:51:29;6.20;99.90
18717;DHT22;9487;50.892;6.906;2023-01-16T11:53:57;6.20;1.00
18717;DHT22;9487;50.892;6.906;2023-01-16T11:56:52;6.20;99.90
18717;DHT22;9487;50.892;6.906;2023-01-16T11:59:44;6.20;99.90
18717;DHT22;9487;50.892;6.906;2023-01-16T12:02:26;6.10;99.90
18717;DHT22;9487;50.892;6.906;2023-01-16T12:05:02;6.30;99.90
18717;DHT22;9487;50.892;6.906;2023-01-16T12:08:03;6.50;1.00
18717;DHT22;9487;50.892;6.906;2023-01-16T12:10:40;6.30;99.90
18717;DHT22;9487;50.892;6.906;2023-01-16T12:13:11;6.30;99.90
18717;DHT22;9487;50.892;6.906;2023-01-16T12:16:05;6.30;1.00
18717;DHT22;9487;50.892;6.906;2023-01-16T12:18:41;6.20;1.00
18717;DHT22;9487;50.892;6.906;2023-01-16T12:21:21;6.50;1.00
18717;DHT22;9487;50.892;6.906;2023-01-16T12:24:04;6.30;99.90
18717;DHT22;9487;50.892;6.906;2023-01-16T12:26:40;6.20;99.90
18717;DHT22;9487;50.892;6.906;2023-01-16T12:29:24;6.10;99.90
18717;DHT22;9487;50.892;6.906;2023-01-16T12:32:05;6.00;1.00
18717;DHT22;9487;50.892;6.906;2023-01-16T12:37:53;6.00;1.00
18717;DHT22;9487;50.892;6.906;2023-01-16T12:40:30;6.00;1.00
18717;DHT22;9487;50.892;6.906;2023-01-16T12:43:12;6.10;99.90
18717;DHT22;9487;50.892;6.906;2023-01-16T12:45:49;6.10;1.00
18717;DHT22;9487;50.892;6.906;2023-01-16T12:48:46;6.10;99.90
18717;DHT22;9487;50.892;6.906;2023-01-16T12:51:37;6.10;1.00
18717;DHT22;9487;50.892;6.906;2023-01-16T12:54:36;6.10;99.90
18717;DHT22;9487;50.892;6.906;2023-01-16T12:57:21;6.10;99.90
18717;DHT22;9487;50.892;6.906;2023-01-16T12:59:53;6.10;1.00
18717;DHT22;9487;50.892;6.906;2023-01-16T13:02:28;6.10;99.90
18717;DHT22;9487;50.892;6.906;2023-01-16T13:05:01;6.10;99.90
18717;DHT22;9487;50.892;6.906;2023-01-16T13:07:32;6.10;1.00
18717;DHT22;9487;50.892;6.906;2023-01-16T13:10:05;6.10;1.00
18717;DHT22;9487;50.892;6.906;2023-01-16T13:12:56;6.20;1.00
18717;DHT22;9487;50.892;6.906;2023-01-16T13:15:43;6.20;1.00
18717;DHT22;9487;50.892;6.906;2023-01-16T13:18:17;6.20;1.00
18717;DHT22;9487;50.892;6.906;2023-01-16T13:20:45;6.20;1.00
18717;DHT22;9487;50.892;6.906;2023-01-16T13:23:16;6.20;1.00
18717;DHT22;9487;50.892;6.906;2023-01-16T13:25:46;6.80;99.90
18717;DHT22;9487;50.892;6.906;2023-01-16T13:28:18;7.40;99.90
18717;DHT22;9487;50.892;6.906;2023-01-16T13:30:51;7.60;1.00
18717;DHT22;9487;50.892;6.906;2023-01-16T13:33:21;7.00;99.90
18717;DHT22;9487;50.892;6.906;2023-01-16T13:35:58;6.60;99.90
18717;DHT22;9487;50.892;6.906;2023-01-16T13:41:21;6.40;1.00
18717;DHT22;9487;50.892;6.906;2023-01-16T13:43:54;6.30;1.00
18717;DHT22;9487;50.892;6.906;2023-01-16T13:46:40;6.20;44.20
18717;DHT22;9487;50.892;6.906;2023-01-16T13:49:16;6.20;99.90
18717;DHT22;9487;50.892;6.906;2023-01-16T13:51:47;6.20;1.00
18717;DHT22;9487;50.892;6.906;2023-01-16T13:54:18;6.20;1.00
18717;DHT22;9487;50.892;6.906;2023-01-16T13:56:56;6.20;1.00
18717;DHT22;9487;50.892;6.906;2023-01-16T13:59:42;6.30;34.20
18717;DHT22;9487;50.892;6.906;2023-01-16T14:02:26;6.30;1.00
18717;DHT22;9487;50.892;6.906;2023-01-16T14:05:22;6.20;1.00
18717;DHT22;9487;50.892;6.906;2023-01-16T14:08:03;6.20;1.00
18717;DHT22;9487;50.892;6.906;2023-01-16T14:11:04;6.30;82.80
18717;DHT22;9487;50.892;6.906;2023-01-16T14:13:33;6.20;1.00
18717;DHT22;9487;50.892;6.906;2023-01-16T14:16:30;6.30;1.00
18717;DHT22;9487;50.892;6.906;2023-01-16T14:19:00;6.20;1.00
18717;DHT22;9487;50.892;6.906;2023-01-16T14:21:41;6.20;1.00
18717;DHT22;9487;50.892;6.906;2023-01-16T14:24:15;6.20;1.00
18717;DHT22;9487;50.892;6.906;2023-01-16T14:26:44;6.20;1.00
18717;DHT22;9487;50.892;6.906;2023-01-16T14:29:18;6.20;1.00
18717;DHT22;9487;50.892;6.906;2023-01-16T14:31:52;6.20;99.90
18717;DHT22;9487;50.892;6.906;2023-01-16T14:34:22;6.30;99.90
18717;DHT22;9487;50.892;6.906;2023-01-16T14:36:53;6.30;8.70
18717;DHT22;9487;50.892;6.906;2023-01-16T14:39:29;6.30;1.00
18717;DHT22;9487;50.892;6.906;2023-01-16T14:42:00;6.20;1.00
18717;DHT22;9487;50.892;6.906;2023-01-16T14:45:18;6.30;1.00
18717;DHT22;9487;50.892;6.906;2023-01-16T14:48:11;6.30;1.00
18717;DHT22;9487;50.892;6.906;2023-01-16T14:50:59;6.30;1.00
18717;DHT22;9487;50.892;6.906;2023-01-16T14:53:47;6.30;1.00
18717;DHT22;9487;50.892;6.906;2023-01-16T14:56:33;6.30;1.00
18717;DHT22;9487;50.892;6.906;2023-01-16T14:59:04;6.40;1.00
18717;DHT22;9487;50.892;6.906;2023-01-16T15:01:34;6.40;1.00
18717;DHT22;9487;50.892;6.906;2023-01-16T15:04:22;6.40;99.90
18717;DHT22;9487;50.892;6.906;2023-01-16T15:06:52;6.50;1.00
18717;DHT22;9487;50.892;6.906;2023-01-16T15:09:21;6.50;1.00
18717;DHT22;9487;50.892;6.906;2023-01-16T15:11:52;6.50;99.90
18717;DHT22;9487;50.892;6.906;2023-01-16T15:14:22;6.50;99.90
18717;DHT22;9487;50.892;6.906;2023-01-16T15:19:57;6.60;1.00
18717;DHT22;9487;50.892;6.906;2023-01-16T15:22:43;6.50;99.90
18717;DHT22;9487;50.892;6.906;2023-01-16T15:25:19;6.60;99.90
18717;DHT22;9487;50.892;6.906;2023-01-16T15:27:54;6.50;99.90
18717;DHT22;9487;50.892;6.906;2023-01-16T15:30:25;6.50;99.90
18717;DHT22;9487;50.892;6.906;2023-01-16T15:32:53;6.50;99.90
18717;DHT22;9487;50.892;6.906;2023-01-16T15:35:21;6.50;99.90
18717;DHT22;9487;50.892;6.906;2023-01-16T15:37:49;6.40;99.90
18717;DHT22;9487;50.892;6.906;2023-01-16T15:40:27;6.40;1.00
18717;DHT22;9487;50.892;6.906;2023-01-16T15:42:55;6.40;1.00
18717;DHT22;9487;50.892;6.906;2023-01-16T15:45:45;6.40;1.00
18717;DHT22;9487;50.892;6.906;2023-01-16T15:48:40;6.40;1.00
18717;DHT22;9487;50.892;6.906;2023-01-16T15:51:10;6.40;1.00
18717;DHT22;9487;50.892;6.906;2023-01-16T15:53:42;6.40;99.90
18717;DHT22;9487;50.892;6.906;2023-01-16T15:56:19;6.50;1.00
18717;DHT22;9487;50.892;6.906;2023-01-16T15:58:47;6.40;99.90
18717;DHT22;9487;50.892;6.906;2023-01-16T16:01:15;6.40;99.90
18717;DHT22;9487;50.892;6.906;2023-01-16T16:03:50;6.40;99.90
18717;DHT22;9487;50.892;6.906;2023-01-16T16:06:18;6.40;1.00
18717;DHT22;9487;50.892;6.906;2023-01-16T16:08:47;6.40;99.90
18717;DHT22;9487;50.892;6.906;2023-01-16T16:11:18;6.30;99.90
18717;DHT22;9487;50.892;6.906;2023-01-16T16:14:05;6.30;1.00
18717;DHT22;9487;50.892;6.906;2023-01-16T16:17:03;6.30;99.90
18717;DHT22;9487;50.892;6.906;2023-01-16T16:19:46;6.20;99.90
18717;DHT22;9487;50.892;6.906;2023-01-16T16:22:16;6.20;1.00
18717;DHT22;9487;50.892;6.906;2023-01-16T16:25:25;6.30;1.00
18717;DHT22;9487;50.892;6.906;2023-01-16T16:27:54;6.20;99.90
18717;DHT22;9487;50.892;6.906;2023-01-16T16:30:25;6.20;99.90
18717;DHT22;9487;50.892;6.906;2023-01-16T16:32:54;6.10;1.00
18717;DHT22;9487;50.892;6.906;2023-01-16T16:35:27;6.00;1.00
18717;DHT22;9487;50.892;6.906;2023-01-16T16:37:55;5.90;99.90
18717;DHT22;9487;50.892;6.906;2023-01-16T16:40:22;5.90;1.00
18717;DHT22;9487;50.892;6.906;2023-01-16T16:42:52;5.90;1.00
18717;DHT22;9487;50.892;6.906;2023-01-16T16:45:26;5.80;99.90
18717;DHT22;9487;50.892;6.906;2023-01-16T16:48:21;5.80;1.00
18717;DHT22;9487;50.892;6.906;2023-01-16T16:50:50;5.80;99.90
18717;DHT22;9487;50.892;6.906;2023-01-16T16:53:23;5.70;1.00
18717;DHT22;9487;50.892;6.906;2023-01-16T16:55:52;5.70;1.00
18717;DHT22;9487;50.892;6.906;2023-01-16T16:58:21;5.70;1.00